sensor_id;sensor_type;location;lat;lon;timestamp;P1;durP1;ratioP1;P2;durP2;ratioP2
39612;SDS011;25303;48.896;13.342;2023-01-24T00:02:16;8.75;;;4.20;;
39612;SDS011;25303;48.896;13.342;2023-01-24T00:04:59;8.35;;;3.95;;
39612;SDS011;25303;48.896;13.342;2023-01-24T00:07:42;9.07;;;3.95;;
39612;SDS011;25303;48.896;13.342;2023-01-24T00:10:25;8.02;;;3.38;;
39612;SDS011;25303;48.896;13.342;2023-01-24T00:13:09;9.77;;;4.55;;
39612;SDS011;25303;48.896;13.342;2023-01-24T00:16:00;8.50;;;3.88;;
39612;SDS011;25303;48.896;13.342;2023-01-24T00:18:46;8.80;;;4.07;;
39612;SDS011;25303;48.896;13.342;2023-01-24T00:21:29;5.63;;;2.63;;
39612;SDS011;25303;48.896;13.342;2023-01-24T00:24:12;4.82;;;2.20;;
39612;SDS011;25303;48.896;13.342;2023-01-24T00:26:55;4.78;;;1.95;;
39612;SDS011;25303;48.896;13.342;2023-01-24T00:29:38;4.45;;;1.60;;
39612;SDS011;25303;48.896;13.342;2023-01-24T00:32:21;4.47;;;2.20;;
39612;SDS011;25303;48.896;13.342;2023-01-24T00:35:05;4.82;;;1.90;;
39612;SDS011;25303;48.896;13.342;2023-01-24T00:37:49;4.40;;;2.17;;
39612;SDS011;25303;48.896;13.342;2023-01-24T00:40:31;2.80;;;1.67;;
39612;SDS011;25303;48.896;13.342;2023-01-24T00:43:14;4.60;;;1.83;;
39612;SDS011;25303;48.896;13.342;2023-01-24T00:45:57;3.72;;;1.75;;
39612;SDS011;25303;48.896;13.342;2023-01-24T00:48:40;3.45;;;1.90;;
39612;SDS011;25303;48.896;13.342;2023-01-24T00:51:24;2.83;;;1.63;;
39612;SDS011;25303;48.896;13.342;2023-01-24T00:54:07;3.80;;;1.63;;
39612;SDS011;25303;48.896;13.342;2023-01-24T00:56:50;3.55;;;2.10;;
39612;SDS011;25303;48.896;13.342;2023-01-24T00:59:34;3.05;;;1.67;;
39612;SDS011;25303;48.896;13.342;2023-01-24T01:02:19;3.22;;;1.90;;
39612;SDS011;25303;48.896;13.342;2023-01-24T01:05:02;3.55;;;1.77;;
39612;SDS011;25303;48.896;13.342;2023-01-24T01:07:46;3.38;;;1.52;;
39612;SDS011;25303;48.896;13.342;2023-01-24T01:10:29;2.50;;;1.50;;
39612;SDS011;25303;48.896;13.342;2023-01-24T01:13:12;4.82;;;2.38;;
39612;SDS011;25303;48.896;13.342;2023-01-24T01:16:02;5.88;;;2.33;;
39612;SDS011;25303;48.896;13.342;2023-01-24T01:18:46;6.35;;;2.72;;
39612;SDS011;25303;48.896;13.342;2023-01-24T01:21:29;9.48;;;4.03;;
39612;SDS011;25303;48.896;13.342;2023-01-24T01:24:13;7.63;;;2.90;;
39612;SDS011;25303;48.896;13.342;2023-01-24T01:26:56;4.55;;;2.17;;
39612;SDS011;25303;48.896;13.342;2023-01-24T01:29:39;4.40;;;2.08;;
39612;SDS011;25303;48.896;13.342;2023-01-24T01:32:22;3.92;;;1.90;;
39612;SDS011;25303;48.896;13.342;2023-01-24T01:35:05;2.67;;;1.38;;
39612;SDS011;25303;48.896;13.342;2023-01-24T01:37:48;3.42;;;2.10;;
39612;SDS011;25303;48.896;13.342;2023-01-24T01:40:32;3.60;;;2.10;;
39612;SDS011;25303;48.896;13.342;2023-01-24T01:43:17;4.05;;;2.20;;
39612;SDS011;25303;48.896;13.342;2023-01-24T01:46:04;3.58;;;2.15;;
39612;SDS011;25303;48.896;13.342;2023-01-24T01:49:00;3.17;;;1.92;;
39612;SDS011;25303;48.896;13.342;2023-01-24T01:51:45;3.85;;;1.70;;
39612;SDS011;25303;48.896;13.342;2023-01-24T01:54:33;3.25;;;1.90;;
39612;SDS011;25303;48.896;13.342;2023-01-24T01:57:21;3.08;;;1.73;;
39612;SDS011;25303;48.896;13.342;2023-01-24T02:00:09;3.17;;;1.75;;
39612;SDS011;25303;48.896;13.342;2023-01-24T02:02:57;3.47;;;1.70;;
39612;SDS011;25303;48.896;13.342;2023-01-24T02:05:58;2.67;;;1.58;;
39612;SDS011;25303;48.896;13.342;2023-01-24T02:08:42;1.95;;;1.17;;
39612;SDS011;25303;48.896;13.342;2023-01-24T02:11:26;2.22;;;1.38;;
39612;SDS011;25303;48.896;13.342;2023-01-24T02:14:23;3.22;;;1.98;;
39612;SDS011;25303;48.896;13.342;2023-01-24T02:17:25;4.22;;;1.95;;
39612;SDS011;25303;48.896;13.342;2023-01-24T02:20:13;4.00;;;2.10;;
39612;SDS011;25303;48.896;13.342;2023-01-24T02:23:10;2.92;;;1.80;;
39612;SDS011;25303;48.896;13.342;2023-01-24T02:28:49;2.72;;;1.55;;
39612;SDS011;25303;48.896;13.342;2023-01-24T02:31:52;3.08;;;1.70;;
39612;SDS011;25303;48.896;13.342;2023-01-24T02:34:37;3.00;;;1.60;;
39612;SDS011;25303;48.896;13.342;2023-01-24T02:37:20;3.38;;;1.73;;
39612;SDS011;25303;48.896;13.342;2023-01-24T02:40:04;3.83;;;1.88;;
39612;SDS011;25303;48.896;13.342;2023-01-24T02:42:52;3.97;;;2.00;;
39612;SDS011;25303;48.896;13.342;2023-01-24T02:45:37;3.63;;;1.90;;
39612;SDS011;25303;48.896;13.342;2023-01-24T02:48:20;3.67;;;1.70;;
39612;SDS011;25303;48.896;13.342;2023-01-24T02:51:03;3.15;;;1.73;;
39612;SDS011;25303;48.896;13.342;2023-01-24T02:54:04;3.42;;;1.90;;
39612;SDS011;25303;48.896;13.342;2023-01-24T02:56:47;3.28;;;1.70;;
39612;SDS011;25303;48.896;13.342;2023-01-24T02:59:49;4.47;;;1.75;;
39612;SDS011;25303;48.896;13.342;2023-01-24T03:02:32;3.47;;;1.45;;
39612;SDS011;25303;48.896;13.342;2023-01-24T03:05:15;3.47;;;1.60;;
39612;SDS011;25303;48.896;13.342;2023-01-24T03:07:58;3.90;;;1.73;;
39612;SDS011;25303;48.896;13.342;2023-01-24T03:10:41;3.92;;;2.10;;
39612;SDS011;25303;48.896;13.342;2023-01-24T03:13:24;3.00;;;1.73;;
39612;SDS011;25303;48.896;13.342;2023-01-24T03:16:29;4.00;;;2.15;;
39612;SDS011;25303;48.896;13.342;2023-01-24T03:19:29;4.35;;;1.83;;
39612;SDS011;25303;48.896;13.342;2023-01-24T03:22:29;4.57;;;2.03;;
39612;SDS011;25303;48.896;13.342;2023-01-24T03:25:30;3.33;;;1.80;;
39612;SDS011;25303;48.896;13.342;2023-01-24T03:28:30;3.40;;;1.70;;
39612;SDS011;25303;48.896;13.342;2023-01-24T03:31:32;3.08;;;1.60;;
39612;SDS011;25303;48.896;13.342;2023-01-24T03:34:34;3.92;;;2.00;;
39612;SDS011;25303;48.896;13.342;2023-01-24T03:37:29;3.35;;;2.00;;
39612;SDS011;25303;48.896;13.342;2023-01-24T03:40:31;4.50;;;1.90;;
39612;SDS011;25303;48.896;13.342;2023-01-24T03:43:14;3.55;;;2.00;;
39612;SDS011;25303;48.896;13.342;2023-01-24T03:45:57;4.07;;;1.98;;
39612;SDS011;25303;48.896;13.342;2023-01-24T03:48:56;2.90;;;1.63;;
39612;SDS011;25303;48.896;13.342;2023-01-24T03:51:47;3.03;;;1.33;;
39612;SDS011;25303;48.896;13.342;2023-01-24T03:54:48;2.72;;;1.30;;
39612;SDS011;25303;48.896;13.342;2023-01-24T03:57:31;3.28;;;1.35;;
39612;SDS011;25303;48.896;13.342;2023-01-24T04:00:19;3.92;;;1.83;;
39612;SDS011;25303;48.896;13.342;2023-01-24T04:03:09;3.25;;;1.77;;
39612;SDS011;25303;48.896;13.342;2023-01-24T04:05:54;4.07;;;2.05;;
39612;SDS011;25303;48.896;13.342;2023-01-24T04:08:36;4.25;;;2.10;;
39612;SDS011;25303;48.896;13.342;2023-01-24T04:11:19;3.70;;;1.90;;
39612;SDS011;25303;48.896;13.342;2023-01-24T04:14:07;2.85;;;1.67;;
39612;SDS011;25303;48.896;13.342;2023-01-24T04:16:59;3.75;;;1.52;;
39612;SDS011;25303;48.896;13.342;2023-01-24T04:19:50;2.92;;;1.58;;
39612;SDS011;25303;48.896;13.342;2023-01-24T04:22:35;2.70;;;1.43;;
39612;SDS011;25303;48.896;13.342;2023-01-24T04:25:18;2.47;;;1.40;;
39612;SDS011;25303;48.896;13.342;2023-01-24T04:28:02;2.70;;;1.10;;
39612;SDS011;25303;48.896;13.342;2023-01-24T04:30:47;2.67;;;1.30;;
39612;SDS011;25303;48.896;13.342;2023-01-24T04:33:46;2.55;;;1.40;;
39612;SDS011;25303;48.896;13.342;2023-01-24T04:36:29;3.58;;;1.75;;
39612;SDS011;25303;48.896;13.342;2023-01-24T04:39:15;5.20;;;1.63;;
39612;SDS011;25303;48.896;13.342;2023-01-24T04:42:09;2.28;;;1.27;;
39612;SDS011;25303;48.896;13.342;2023-01-24T04:44:53;2.08;;;1.15;;
39612;SDS011;25303;48.896;13.342;2023-01-24T04:50:22;2.40;;;1.35;;
39612;SDS011;25303;48.896;13.342;2023-01-24T04:53:05;4.03;;;1.90;;
39612;SDS011;25303;48.896;13.342;2023-01-24T04:55:50;2.97;;;1.40;;
39612;SDS011;25303;48.896;13.342;2023-01-24T04:58:33;5.05;;;1.70;;
39612;SDS011;25303;48.896;13.342;2023-01-24T05:01:18;2.38;;;1.40;;
39612;SDS011;25303;48.896;13.342;2023-01-24T05:04:13;3.40;;;1.50;;
39612;SDS011;25303;48.896;13.342;2023-01-24T05:06:57;3.00;;;1.60;;
39612;SDS011;25303;48.896;13.342;2023-01-24T05:09:40;2.97;;;1.45;;
39612;SDS011;25303;48.896;13.342;2023-01-24T05:12:26;2.60;;;1.58;;
39612;SDS011;25303;48.896;13.342;2023-01-24T05:15:13;2.20;;;1.27;;
39612;SDS011;25303;48.896;13.342;2023-01-24T05:17:56;2.33;;;1.10;;
39612;SDS011;25303;48.896;13.342;2023-01-24T05:20:40;1.80;;;0.98;;
39612;SDS011;25303;48.896;13.342;2023-01-24T05:23:23;1.83;;;0.90;;
39612;SDS011;25303;48.896;13.342;2023-01-24T05:26:06;2.03;;;0.98;;
39612;SDS011;25303;48.896;13.342;2023-01-24T05:28:51;3.53;;;1.20;;
39612;SDS011;25303;48.896;13.342;2023-01-24T05:31:36;2.00;;;1.10;;
39612;SDS011;25303;48.896;13.342;2023-01-24T05:34:19;3.28;;;1.75;;
39612;SDS011;25303;48.896;13.342;2023-01-24T05:37:02;3.45;;;1.75;;
39612;SDS011;25303;48.896;13.342;2023-01-24T05:39:49;3.00;;;1.42;;
39612;SDS011;25303;48.896;13.342;2023-01-24T05:42:32;3.92;;;1.88;;
39612;SDS011;25303;48.896;13.342;2023-01-24T05:45:16;2.95;;;1.67;;
39612;SDS011;25303;48.896;13.342;2023-01-24T05:48:00;4.85;;;2.10;;
39612;SDS011;25303;48.896;13.342;2023-01-24T05:50:43;3.97;;;2.20;;
39612;SDS011;25303;48.896;13.342;2023-01-24T05:53:28;3.55;;;1.70;;
39612;SDS011;25303;48.896;13.342;2023-01-24T05:56:13;3.33;;;1.45;;
39612;SDS011;25303;48.896;13.342;2023-01-24T05:58:59;3.60;;;1.60;;
39612;SDS011;25303;48.896;13.342;2023-01-24T06:01:44;4.07;;;2.08;;
39612;SDS011;25303;48.896;13.342;2023-01-24T06:04:28;3.25;;;1.80;;
39612;SDS011;25303;48.896;13.342;2023-01-24T06:07:11;3.83;;;1.77;;
39612;SDS011;25303;48.896;13.342;2023-01-24T06:09:55;4.05;;;1.90;;
39612;SDS011;25303;48.896;13.342;2023-01-24T06:12:39;4.03;;;2.00;;
39612;SDS011;25303;48.896;13.342;2023-01-24T06:15:22;2.95;;;1.75;;
39612;SDS011;25303;48.896;13.342;2023-01-24T06:18:08;2.60;;;1.40;;
39612;SDS011;25303;48.896;13.342;2023-01-24T06:20:57;4.70;;;2.22;;
39612;SDS011;25303;48.896;13.342;2023-01-24T06:23:41;3.45;;;1.73;;
39612;SDS011;25303;48.896;13.342;2023-01-24T06:26:24;3.78;;;2.08;;
39612;SDS011;25303;48.896;13.342;2023-01-24T06:29:08;4.22;;;1.92;;
39612;SDS011;25303;48.896;13.342;2023-01-24T06:31:55;4.05;;;1.77;;
39612;SDS011;25303;48.896;13.342;2023-01-24T06:34:55;3.15;;;1.52;;
39612;SDS011;25303;48.896;13.342;2023-01-24T06:37:49;3.63;;;1.90;;
39612;SDS011;25303;48.896;13.342;2023-01-24T06:40:33;2.92;;;1.48;;
39612;SDS011;25303;48.896;13.342;2023-01-24T06:43:16;3.55;;;1.70;;
39612;SDS011;25303;48.896;13.342;2023-01-24T06:45:59;5.43;;;2.08;;
39612;SDS011;25303;48.896;13.342;2023-01-24T06:48:43;5.22;;;2.00;;
39612;SDS011;25303;48.896;13.342;2023-01-24T06:51:27;3.53;;;1.60;;
39612;SDS011;25303;48.896;13.342;2023-01-24T06:54:10;3.28;;;1.65;;
39612;SDS011;25303;48.896;13.342;2023-01-24T06:56:53;4.03;;;1.77;;
39612;SDS011;25303;48.896;13.342;2023-01-24T06:59:36;3.03;;;1.30;;
39612;SDS011;25303;48.896;13.342;2023-01-24T07:02:19;2.95;;;1.30;;
39612;SDS011;25303;48.896;13.342;2023-01-24T07:05:01;3.58;;;1.63;;
39612;SDS011;25303;48.896;13.342;2023-01-24T07:07:46;4.13;;;1.88;;
39612;SDS011;25303;48.896;13.342;2023-01-24T07:10:28;3.40;;;1.80;;
39612;SDS011;25303;48.896;13.342;2023-01-24T07:13:11;3.28;;;1.55;;
39612;SDS011;25303;48.896;13.342;2023-01-24T07:15:54;3.33;;;1.60;;
39612;SDS011;25303;48.896;13.342;2023-01-24T07:18:37;3.22;;;1.60;;
39612;SDS011;25303;48.896;13.342;2023-01-24T07:21:21;4.78;;;2.60;;
39612;SDS011;25303;48.896;13.342;2023-01-24T07:24:07;3.78;;;1.73;;
39612;SDS011;25303;48.896;13.342;2023-01-24T07:26:55;4.90;;;1.75;;
39612;SDS011;25303;48.896;13.342;2023-01-24T07:29:38;3.97;;;2.03;;
39612;SDS011;25303;48.896;13.342;2023-01-24T07:32:21;2.70;;;1.45;;
39612;SDS011;25303;48.896;13.342;2023-01-24T07:35:04;3.08;;;1.60;;
39612;SDS011;25303;48.896;13.342;2023-01-24T07:37:48;3.08;;;1.40;;
39612;SDS011;25303;48.896;13.342;2023-01-24T07:40:33;3.78;;;2.00;;
39612;SDS011;25303;48.896;13.342;2023-01-24T07:43:17;3.20;;;1.55;;
39612;SDS011;25303;48.896;13.342;2023-01-24T07:46:01;2.92;;;1.67;;
39612;SDS011;25303;48.896;13.342;2023-01-24T07:48:45;3.15;;;1.70;;
39612;SDS011;25303;48.896;13.342;2023-01-24T07:51:28;2.83;;;1.70;;
39612;SDS011;25303;48.896;13.342;2023-01-24T07:54:12;5.53;;;2.53;;
39612;SDS011;25303;48.896;13.342;2023-01-24T07:56:56;8.82;;;4.00;;
39612;SDS011;25303;48.896;13.342;2023-01-24T07:59:39;10.57;;;4.60;;
39612;SDS011;25303;48.896;13.342;2023-01-24T08:02:21;10.68;;;4.35;;
39612;SDS011;25303;48.896;13.342;2023-01-24T08:05:05;9.45;;;4.53;;
39612;SDS011;25303;48.896;13.342;2023-01-24T08:07:48;7.73;;;3.90;;
39612;SDS011;25303;48.896;13.342;2023-01-24T08:10:31;5.97;;;3.08;;
39612;SDS011;25303;48.896;13.342;2023-01-24T08:13:15;8.00;;;3.80;;
39612;SDS011;25303;48.896;13.342;2023-01-24T08:15:58;7.85;;;3.75;;
39612;SDS011;25303;48.896;13.342;2023-01-24T08:18:42;8.93;;;3.92;;
39612;SDS011;25303;48.896;13.342;2023-01-24T08:21:25;15.33;;;6.10;;
39612;SDS011;25303;48.896;13.342;2023-01-24T08:24:08;18.85;;;6.72;;
39612;SDS011;25303;48.896;13.342;2023-01-24T08:26:51;15.25;;;6.13;;
39612;SDS011;25303;48.896;13.342;2023-01-24T08:29:35;14.23;;;4.60;;
39612;SDS011;25303;48.896;13.342;2023-01-24T08:32:18;11.07;;;4.45;;
39612;SDS011;25303;48.896;13.342;2023-01-24T08:35:01;6.85;;;3.17;;
39612;SDS011;25303;48.896;13.342;2023-01-24T08:37:44;6.47;;;3.13;;
39612;SDS011;25303;48.896;13.342;2023-01-24T08:40:27;9.50;;;3.95;;
39612;SDS011;25303;48.896;13.342;2023-01-24T08:43:21;8.63;;;3.60;;
39612;SDS011;25303;48.896;13.342;2023-01-24T08:46:05;5.35;;;2.85;;
39612;SDS011;25303;48.896;13.342;2023-01-24T08:48:48;5.57;;;2.42;;
39612;SDS011;25303;48.896;13.342;2023-01-24T08:51:31;4.50;;;2.03;;
39612;SDS011;25303;48.896;13.342;2023-01-24T08:54:14;4.50;;;2.40;;
39612;SDS011;25303;48.896;13.342;2023-01-24T08:56:57;9.68;;;3.63;;
39612;SDS011;25303;48.896;13.342;2023-01-24T08:59:40;12.90;;;5.57;;
39612;SDS011;25303;48.896;13.342;2023-01-24T09:02:24;12.50;;;5.30;;
39612;SDS011;25303;48.896;13.342;2023-01-24T09:05:07;9.50;;;4.13;;
39612;SDS011;25303;48.896;13.342;2023-01-24T09:07:51;6.28;;;3.20;;
39612;SDS011;25303;48.896;13.342;2023-01-24T09:10:34;4.45;;;2.30;;
39612;SDS011;25303;48.896;13.342;2023-01-24T09:13:17;4.55;;;2.30;;
39612;SDS011;25303;48.896;13.342;2023-01-24T09:16:00;5.72;;;3.00;;
39612;SDS011;25303;48.896;13.342;2023-01-24T09:18:44;4.13;;;2.50;;
39612;SDS011;25303;48.896;13.342;2023-01-24T09:21:27;4.53;;;2.40;;
39612;SDS011;25303;48.896;13.342;2023-01-24T09:24:10;5.47;;;2.65;;
39612;SDS011;25303;48.896;13.342;2023-01-24T09:26:53;4.53;;;2.22;;
39612;SDS011;25303;48.896;13.342;2023-01-24T09:29:35;3.70;;;2.17;;
39612;SDS011;25303;48.896;13.342;2023-01-24T09:32:18;5.45;;;2.70;;
39612;SDS011;25303;48.896;13.342;2023-01-24T09:35:03;6.50;;;3.42;;
39612;SDS011;25303;48.896;13.342;2023-01-24T09:37:47;6.85;;;3.47;;
39612;SDS011;25303;48.896;13.342;2023-01-24T09:40:33;7.45;;;3.35;;
39612;SDS011;25303;48.896;13.342;2023-01-24T09:43:35;5.65;;;3.00;;
39612;SDS011;25303;48.896;13.342;2023-01-24T09:46:25;5.90;;;3.50;;
39612;SDS011;25303;48.896;13.342;2023-01-24T09:49:13;4.75;;;2.60;;
39612;SDS011;25303;48.896;13.342;2023-01-24T09:52:01;5.78;;;2.40;;
39612;SDS011;25303;48.896;13.342;2023-01-24T09:54:48;4.00;;;2.30;;
39612;SDS011;25303;48.896;13.342;2023-01-24T09:57:43;5.00;;;2.40;;
39612;SDS011;25303;48.896;13.342;2023-01-24T10:00:33;5.20;;;2.30;;
39612;SDS011;25303;48.896;13.342;2023-01-24T10:03:19;4.57;;;2.25;;
39612;SDS011;25303;48.896;13.342;2023-01-24T10:06:06;3.72;;;2.00;;
39612;SDS011;25303;48.896;13.342;2023-01-24T10:08:53;5.22;;;2.42;;
39612;SDS011;25303;48.896;13.342;2023-01-24T10:11:44;4.82;;;2.30;;
39612;SDS011;25303;48.896;13.342;2023-01-24T10:14:37;5.63;;;2.40;;
39612;SDS011;25303;48.896;13.342;2023-01-24T10:17:38;4.55;;;2.00;;
39612;SDS011;25303;48.896;13.342;2023-01-24T10:20:53;3.60;;;2.40;;
39612;SDS011;25303;48.896;13.342;2023-01-24T10:23:49;3.35;;;1.92;;
39612;SDS011;25303;48.896;13.342;2023-01-24T10:26:38;3.33;;;1.63;;
39612;SDS011;25303;48.896;13.342;2023-01-24T10:29:28;6.72;;;2.92;;
39612;SDS011;25303;48.896;13.342;2023-01-24T10:32:13;6.53;;;3.05;;
39612;SDS011;25303;48.896;13.342;2023-01-24T10:35:01;5.45;;;3.10;;
39612;SDS011;25303;48.896;13.342;2023-01-24T10:37:53;5.65;;;2.80;;
39612;SDS011;25303;48.896;13.342;2023-01-24T10:40:49;6.13;;;3.20;;
39612;SDS011;25303;48.896;13.342;2023-01-24T10:43:33;6.00;;;2.90;;
39612;SDS011;25303;48.896;13.342;2023-01-24T10:46:25;5.60;;;2.90;;
39612;SDS011;25303;48.896;13.342;2023-01-24T10:49:24;4.43;;;2.25;;
39612;SDS011;25303;48.896;13.342;2023-01-24T10:52:11;4.57;;;2.40;;
39612;SDS011;25303;48.896;13.342;2023-01-24T10:54:56;5.43;;;2.65;;
39612;SDS011;25303;48.896;13.342;2023-01-24T10:57:42;4.25;;;2.03;;
39612;SDS011;25303;48.896;13.342;2023-01-24T11:00:27;4.95;;;2.50;;
39612;SDS011;25303;48.896;13.342;2023-01-24T11:03:18;5.60;;;2.53;;
39612;SDS011;25303;48.896;13.342;2023-01-24T11:06:04;3.53;;;2.10;;
39612;SDS011;25303;48.896;13.342;2023-01-24T11:08:47;3.70;;;2.28;;
39612;SDS011;25303;48.896;13.342;2023-01-24T11:11:38;5.13;;;3.13;;
39612;SDS011;25303;48.896;13.342;2023-01-24T11:14:25;4.97;;;2.85;;
39612;SDS011;25303;48.896;13.342;2023-01-24T11:17:25;4.78;;;2.80;;
39612;SDS011;25303;48.896;13.342;2023-01-24T11:20:17;4.45;;;2.78;;
39612;SDS011;25303;48.896;13.342;2023-01-24T11:23:10;5.17;;;2.93;;
39612;SDS011;25303;48.896;13.342;2023-01-24T11:25:57;5.45;;;2.85;;
39612;SDS011;25303;48.896;13.342;2023-01-24T11:28:42;4.25;;;2.47;;
39612;SDS011;25303;48.896;13.342;2023-01-24T11:31:31;4.43;;;2.70;;
39612;SDS011;25303;48.896;13.342;2023-01-24T11:34:27;5.88;;;2.75;;
39612;SDS011;25303;48.896;13.342;2023-01-24T11:37:29;4.57;;;2.70;;
39612;SDS011;25303;48.896;13.342;2023-01-24T11:40:24;5.28;;;2.70;;
39612;SDS011;25303;48.896;13.342;2023-01-24T11:43:20;5.00;;;2.85;;
39612;SDS011;25303;48.896;13.342;2023-01-24T11:46:15;4.55;;;2.53;;
39612;SDS011;25303;48.896;13.342;2023-01-24T11:49:16;3.97;;;2.40;;
39612;SDS011;25303;48.896;13.342;2023-01-24T11:52:22;4.78;;;2.40;;
39612;SDS011;25303;48.896;13.342;2023-01-24T11:55:26;4.30;;;2.50;;
39612;SDS011;25303;48.896;13.342;2023-01-24T11:58:20;4.53;;;2.55;;
39612;SDS011;25303;48.896;13.342;2023-01-24T12:01:20;4.00;;;2.30;;
39612;SDS011;25303;48.896;13.342;2023-01-24T12:04:18;4.30;;;2.45;;
39612;SDS011;25303;48.896;13.342;2023-01-24T12:07:26;3.40;;;2.10;;
39612;SDS011;25303;48.896;13.342;2023-01-24T12:10:16;6.30;;;2.45;;
39612;SDS011;25303;48.896;13.342;2023-01-24T12:13:08;3.72;;;2.17;;
39612;SDS011;25303;48.896;13.342;2023-01-24T12:16:03;4.00;;;2.50;;
39612;SDS011;25303;48.896;13.342;2023-01-24T12:18:58;4.63;;;2.15;;
39612;SDS011;25303;48.896;13.342;2023-01-24T12:21:53;4.38;;;2.30;;
39612;SDS011;25303;48.896;13.342;2023-01-24T12:24:37;4.15;;;2.20;;
39612;SDS011;25303;48.896;13.342;2023-01-24T12:27:24;3.10;;;2.03;;
39612;SDS011;25303;48.896;13.342;2023-01-24T12:30:13;4.30;;;2.45;;
39612;SDS011;25303;48.896;13.342;2023-01-24T12:35:51;6.25;;;2.78;;
39612;SDS011;25303;48.896;13.342;2023-01-24T12:38:43;5.20;;;2.58;;
39612;SDS011;25303;48.896;13.342;2023-01-24T12:41:29;5.93;;;3.05;;
39612;SDS011;25303;48.896;13.342;2023-01-24T12:44:20;6.40;;;2.88;;
39612;SDS011;25303;48.896;13.342;2023-01-24T12:47:15;4.35;;;2.60;;
39612;SDS011;25303;48.896;13.342;2023-01-24T12:50:13;4.57;;;2.67;;
39612;SDS011;25303;48.896;13.342;2023-01-24T12:53:05;4.88;;;2.55;;
39612;SDS011;25303;48.896;13.342;2023-01-24T12:55:56;3.65;;;2.30;;
39612;SDS011;25303;48.896;13.342;2023-01-24T12:58:45;4.68;;;2.50;;
39612;SDS011;25303;48.896;13.342;2023-01-24T13:01:34;4.50;;;2.75;;
39612;SDS011;25303;48.896;13.342;2023-01-24T13:04:35;4.72;;;2.72;;
39612;SDS011;25303;48.896;13.342;2023-01-24T13:07:29;4.32;;;2.50;;
39612;SDS011;25303;48.896;13.342;2023-01-24T13:10:21;4.40;;;3.00;;
39612;SDS011;25303;48.896;13.342;2023-01-24T13:13:18;4.75;;;2.60;;
39612;SDS011;25303;48.896;13.342;2023-01-24T13:16:10;3.78;;;2.67;;
39612;SDS011;25303;48.896;13.342;2023-01-24T13:19:15;4.88;;;2.85;;
39612;SDS011;25303;48.896;13.342;2023-01-24T13:22:11;4.85;;;2.83;;
39612;SDS011;25303;48.896;13.342;2023-01-24T13:25:19;4.97;;;2.85;;
39612;SDS011;25303;48.896;13.342;2023-01-24T13:28:15;4.95;;;2.92;;
39612;SDS011;25303;48.896;13.342;2023-01-24T13:31:10;5.45;;;2.90;;
39612;SDS011;25303;48.896;13.342;2023-01-24T13:33:58;3.92;;;2.55;;
39612;SDS011;25303;48.896;13.342;2023-01-24T13:36:46;4.45;;;2.80;;
39612;SDS011;25303;48.896;13.342;2023-01-24T13:39:32;4.90;;;3.05;;
39612;SDS011;25303;48.896;13.342;2023-01-24T13:42:20;3.95;;;2.70;;
39612;SDS011;25303;48.896;13.342;2023-01-24T13:51:42;7.40;;;3.05;;
39612;SDS011;25303;48.896;13.342;2023-01-24T13:54:34;5.05;;;2.85;;
39612;SDS011;25303;48.896;13.342;2023-01-24T13:57:20;5.43;;;3.03;;
39612;SDS011;25303;48.896;13.342;2023-01-24T14:03:13;4.72;;;2.78;;
39612;SDS011;25303;48.896;13.342;2023-01-24T14:06:12;5.70;;;2.60;;
39612;SDS011;25303;48.896;13.342;2023-01-24T14:09:03;4.57;;;2.70;;
39612;SDS011;25303;48.896;13.342;2023-01-24T14:11:56;5.22;;;2.88;;
39612;SDS011;25303;48.896;13.342;2023-01-24T14:14:58;5.95;;;3.00;;
39612;SDS011;25303;48.896;13.342;2023-01-24T14:17:44;5.25;;;2.70;;
39612;SDS011;25303;48.896;13.342;2023-01-24T14:20:35;4.45;;;2.70;;
39612;SDS011;25303;48.896;13.342;2023-01-24T14:23:25;4.88;;;2.78;;
39612;SDS011;25303;48.896;13.342;2023-01-24T14:26:13;4.45;;;2.65;;
39612;SDS011;25303;48.896;13.342;2023-01-24T14:28:59;4.40;;;2.80;;
39612;SDS011;25303;48.896;13.342;2023-01-24T14:31:45;4.70;;;2.88;;
39612;SDS011;25303;48.896;13.342;2023-01-24T14:34:33;4.63;;;2.58;;
39612;SDS011;25303;48.896;13.342;2023-01-24T14:37:22;8.10;;;3.30;;
39612;SDS011;25303;48.896;13.342;2023-01-24T14:40:17;6.85;;;3.60;;
39612;SDS011;25303;48.896;13.342;2023-01-24T14:43:03;4.50;;;2.53;;
39612;SDS011;25303;48.896;13.342;2023-01-24T14:45:47;5.30;;;2.67;;
39612;SDS011;25303;48.896;13.342;2023-01-24T14:48:31;5.03;;;2.83;;
39612;SDS011;25303;48.896;13.342;2023-01-24T14:51:14;4.68;;;2.88;;
39612;SDS011;25303;48.896;13.342;2023-01-24T14:54:00;4.75;;;2.78;;
39612;SDS011;25303;48.896;13.342;2023-01-24T14:56:44;6.50;;;2.90;;
39612;SDS011;25303;48.896;13.342;2023-01-24T14:59:26;4.65;;;2.60;;
39612;SDS011;25303;48.896;13.342;2023-01-24T15:02:14;5.07;;;3.03;;
39612;SDS011;25303;48.896;13.342;2023-01-24T15:04:58;5.43;;;3.30;;
39612;SDS011;25303;48.896;13.342;2023-01-24T15:07:44;7.22;;;4.25;;
39612;SDS011;25303;48.896;13.342;2023-01-24T15:10:27;7.90;;;3.40;;
39612;SDS011;25303;48.896;13.342;2023-01-24T15:13:19;5.95;;;3.28;;
39612;SDS011;25303;48.896;13.342;2023-01-24T15:16:07;6.78;;;3.10;;
39612;SDS011;25303;48.896;13.342;2023-01-24T15:19:01;10.30;;;4.60;;
39612;SDS011;25303;48.896;13.342;2023-01-24T15:21:46;7.57;;;3.88;;
39612;SDS011;25303;48.896;13.342;2023-01-24T15:24:31;7.93;;;3.75;;
39612;SDS011;25303;48.896;13.342;2023-01-24T15:27:19;7.53;;;3.70;;
39612;SDS011;25303;48.896;13.342;2023-01-24T15:30:14;5.68;;;3.13;;
39612;SDS011;25303;48.896;13.342;2023-01-24T15:33:02;6.10;;;3.20;;
39612;SDS011;25303;48.896;13.342;2023-01-24T15:35:54;6.57;;;3.05;;
39612;SDS011;25303;48.896;13.342;2023-01-24T15:38:39;5.85;;;3.47;;
39612;SDS011;25303;48.896;13.342;2023-01-24T15:41:27;5.47;;;3.20;;
39612;SDS011;25303;48.896;13.342;2023-01-24T15:44:27;6.47;;;3.70;;
39612;SDS011;25303;48.896;13.342;2023-01-24T15:47:17;8.13;;;4.25;;
39612;SDS011;25303;48.896;13.342;2023-01-24T15:50:20;7.82;;;4.00;;
39612;SDS011;25303;48.896;13.342;2023-01-24T15:53:22;7.05;;;3.58;;
39612;SDS011;25303;48.896;13.342;2023-01-24T15:56:10;8.63;;;4.03;;
39612;SDS011;25303;48.896;13.342;2023-01-24T15:58:58;8.25;;;4.18;;
39612;SDS011;25303;48.896;13.342;2023-01-24T16:01:41;8.25;;;4.20;;
39612;SDS011;25303;48.896;13.342;2023-01-24T16:04:26;8.00;;;4.10;;
39612;SDS011;25303;48.896;13.342;2023-01-24T16:07:08;7.60;;;3.85;;
39612;SDS011;25303;48.896;13.342;2023-01-24T16:09:51;9.07;;;3.63;;
39612;SDS011;25303;48.896;13.342;2023-01-24T16:12:37;6.80;;;3.13;;
39612;SDS011;25303;48.896;13.342;2023-01-24T16:15:20;5.95;;;3.35;;
39612;SDS011;25303;48.896;13.342;2023-01-24T16:18:04;6.10;;;3.05;;
39612;SDS011;25303;48.896;13.342;2023-01-24T16:20:48;6.35;;;3.35;;
39612;SDS011;25303;48.896;13.342;2023-01-24T16:23:31;6.78;;;3.35;;
39612;SDS011;25303;48.896;13.342;2023-01-24T16:26:16;5.10;;;2.70;;
39612;SDS011;25303;48.896;13.342;2023-01-24T16:29:05;6.80;;;3.25;;
39612;SDS011;25303;48.896;13.342;2023-01-24T16:31:54;5.43;;;2.47;;
39612;SDS011;25303;48.896;13.342;2023-01-24T16:34:37;4.97;;;2.50;;
39612;SDS011;25303;48.896;13.342;2023-01-24T16:37:21;5.35;;;3.03;;
39612;SDS011;25303;48.896;13.342;2023-01-24T16:40:05;6.63;;;3.15;;
39612;SDS011;25303;48.896;13.342;2023-01-24T16:42:51;5.70;;;2.90;;
39612;SDS011;25303;48.896;13.342;2023-01-24T16:45:35;7.20;;;2.80;;
39612;SDS011;25303;48.896;13.342;2023-01-24T16:48:18;4.60;;;2.70;;
39612;SDS011;25303;48.896;13.342;2023-01-24T16:51:01;4.93;;;2.47;;
39612;SDS011;25303;48.896;13.342;2023-01-24T16:53:45;5.90;;;2.90;;